createdAt,value
2022-11-10T00:04:28.869Z,8.10
2022-11-10T00:10:08.511Z,8.21
2022-11-10T00:16:06.714Z,8.17
2022-11-10T00:21:46.122Z,8.15
2022-11-10T00:27:25.287Z,8.17
2022-11-10T00:33:04.968Z,8.19
2022-11-10T00:38:44.289Z,8.18
2022-11-10T00:44:23.468Z,8.15
2022-11-10T00:50:02.853Z,8.23
2022-11-10T00:55:42.300Z,8.21
2022-11-10T01:01:24.331Z,8.18
2022-11-10T01:07:04.228Z,8.21
2022-11-10T01:12:44.005Z,8.19
2022-11-10T01:18:23.486Z,8.27
2022-11-10T01:24:03.188Z,8.28
2022-11-10T01:29:42.755Z,8.31
2022-11-10T01:35:22.250Z,8.34
2022-11-10T01:41:02.234Z,8.40
2022-11-10T01:46:41.677Z,8.38
2022-11-10T01:52:21.393Z,8.39
2022-11-10T01:58:00.685Z,8.39
2022-11-10T02:03:46.216Z,8.39
2022-11-10T02:09:25.568Z,8.36
2022-11-10T02:15:06.276Z,8.42
2022-11-10T02:20:45.841Z,8.39
2022-11-10T02:26:29.237Z,8.35
2022-11-10T02:32:08.890Z,8.38
2022-11-10T02:37:48.519Z,8.42
2022-11-10T02:43:28.600Z,8.51
2022-11-10T02:49:08.223Z,8.55
2022-11-10T02:54:47.833Z,8.60
2022-11-10T03:00:27.013Z,8.78
2022-11-10T03:06:06.399Z,8.73
2022-11-10T03:11:45.734Z,8.72
2022-11-10T03:17:25.679Z,8.81
2022-11-10T03:23:05.711Z,8.71
2022-11-10T03:28:45.188Z,8.87
2022-11-10T03:34:27.031Z,8.90
2022-11-10T03:40:10.166Z,8.88
2022-11-10T03:45:49.316Z,8.81
2022-11-10T03:51:28.699Z,8.85
2022-11-10T03:57:07.849Z,9.03
2022-11-10T04:02:46.950Z,9.18
2022-11-10T04:08:45.009Z,9.17
2022-11-10T04:14:43.082Z,9.13
2022-11-10T04:20:22.752Z,9.18
2022-11-10T04:26:24.443Z,9.17
2022-11-10T04:32:04.055Z,9.12
2022-11-10T04:37:43.538Z,8.91
2022-11-10T04:43:23.175Z,8.86
2022-11-10T04:49:02.955Z,8.75
2022-11-10T04:54:42.360Z,8.71
2022-11-10T05:00:21.804Z,8.73
2022-11-10T05:06:01.363Z,8.75
2022-11-10T05:11:40.972Z,8.82
2022-11-10T05:17:20.442Z,8.87
2022-11-10T05:23:18.763Z,8.87
2022-11-10T05:28:58.056Z,8.93
2022-11-10T05:34:37.496Z,8.93
2022-11-10T05:40:16.998Z,8.94
2022-11-10T05:45:56.528Z,8.89
2022-11-10T05:51:35.638Z,8.87
2022-11-10T05:57:14.923Z,8.84
2022-11-10T06:03:20.988Z,8.82
2022-11-10T06:09:00.520Z,8.78
2022-11-10T06:14:39.818Z,8.87
2022-11-10T06:20:19.466Z,9.17
2022-11-10T06:25:58.870Z,9.03
2022-11-10T06:31:38.026Z,8.97
2022-11-10T06:37:17.406Z,8.93
2022-11-10T06:42:57.031Z,8.98
2022-11-10T06:48:36.300Z,9.01
2022-11-10T06:54:15.812Z,9.05
2022-11-10T06:59:55.188Z,9.18
2022-11-10T07:05:35.164Z,8.94
2022-11-10T07:11:14.932Z,8.88
2022-11-10T07:16:54.455Z,9.69
2022-11-10T07:22:33.721Z,9.39
2022-11-10T07:28:13.077Z,9.31
2022-11-10T07:33:54.601Z,9.23
2022-11-10T07:39:34.141Z,9.08
2022-11-10T07:45:13.819Z,9.04
2022-11-10T07:50:53.511Z,9.00
2022-11-10T07:56:32.989Z,9.20
2022-11-10T08:02:12.449Z,9.31
2022-11-10T08:07:52.938Z,9.35
2022-11-10T08:13:32.634Z,9.43
2022-11-10T08:19:12.339Z,9.51
2022-11-10T08:24:51.445Z,9.59
2022-11-10T08:30:30.923Z,9.65
2022-11-10T08:36:10.230Z,9.69
2022-11-10T08:41:49.416Z,9.83
2022-11-10T08:47:28.412Z,9.92
2022-11-10T08:53:12.395Z,10.03
2022-11-10T08:58:53.512Z,10.13
2022-11-10T09:04:32.819Z,10.25
2022-11-10T09:10:13.436Z,10.32
2022-11-10T09:15:52.716Z,10.39
2022-11-10T09:21:31.828Z,10.48
2022-11-10T09:27:11.606Z,10.65
2022-11-10T09:32:57.587Z,10.87
2022-11-10T09:38:37.116Z,11.02
2022-11-10T09:44:22.245Z,11.03
2022-11-10T09:50:02.601Z,11.03
2022-11-10T09:55:45.150Z,11.14
2022-11-10T10:01:30.527Z,11.27
2022-11-10T10:07:15.354Z,11.39
2022-11-10T10:13:01.670Z,11.41
2022-11-10T10:19:07.294Z,11.51
2022-11-10T10:24:48.174Z,11.56
2022-11-10T10:30:27.432Z,11.58
2022-11-10T10:36:15.239Z,11.65
2022-11-10T10:41:54.341Z,11.84
2022-11-10T10:47:40.311Z,11.97
2022-11-10T10:53:28.735Z,12.11
2022-11-10T10:59:17.183Z,12.24
2022-11-10T11:05:15.049Z,12.24
2022-11-10T11:10:54.403Z,12.20
2022-11-10T11:16:45.794Z,12.22
2022-11-10T11:22:37.588Z,12.29
2022-11-10T11:28:20.045Z,12.22
2022-11-10T11:34:02.236Z,12.06
2022-11-10T11:39:57.028Z,12.24
2022-11-10T11:45:42.216Z,12.29
2022-11-10T11:51:27.021Z,12.28
2022-11-10T11:57:25.161Z,12.16
2022-11-10T12:03:10.409Z,12.16
2022-11-10T12:09:09.288Z,12.14
2022-11-10T12:15:04.005Z,12.17
2022-11-10T12:21:02.076Z,12.06
2022-11-10T12:26:47.316Z,11.85
2022-11-10T12:32:29.393Z,11.78
2022-11-10T12:38:13.812Z,11.70
2022-11-10T12:43:56.168Z,11.81
2022-11-10T12:49:36.789Z,11.90
2022-11-10T12:55:16.000Z,11.94
2022-11-10T13:01:04.974Z,11.94
2022-11-10T13:06:49.658Z,11.85
2022-11-10T13:12:29.009Z,11.81
2022-11-10T13:18:22.196Z,11.77
2022-11-10T13:24:02.689Z,11.79
2022-11-10T13:29:48.060Z,11.81
2022-11-10T13:35:30.550Z,11.81
2022-11-10T13:41:14.030Z,12.53
2022-11-10T13:47:04.375Z,12.36
2022-11-10T13:53:01.761Z,12.24
2022-11-10T13:58:43.478Z,12.01
2022-11-10T14:04:41.777Z,11.83
2022-11-10T14:10:29.790Z,11.81
2022-11-10T14:16:19.657Z,11.84
2022-11-10T14:22:01.043Z,11.79
2022-11-10T14:27:40.566Z,11.87
2022-11-10T14:33:21.116Z,11.80
2022-11-10T14:39:00.969Z,11.77
2022-11-10T14:44:40.527Z,11.64
2022-11-10T14:50:32.164Z,11.64
2022-11-10T14:56:17.814Z,11.53
2022-11-10T15:01:59.052Z,11.41
2022-11-10T15:07:38.746Z,11.36
2022-11-10T15:13:27.529Z,11.22
2022-11-10T15:19:25.718Z,11.22
2022-11-10T15:25:18.861Z,11.16
2022-11-10T15:31:09.820Z,11.13
2022-11-10T15:36:49.094Z,11.10
2022-11-10T15:42:28.710Z,11.05
2022-11-10T15:48:15.115Z,10.92
2022-11-10T15:53:54.630Z,10.92
2022-11-10T15:59:34.132Z,10.90
2022-11-10T16:05:13.485Z,10.91
2022-11-10T16:10:53.856Z,10.94
2022-11-10T16:16:33.507Z,10.89
2022-11-10T16:22:13.490Z,10.97
2022-11-10T16:27:52.833Z,10.96
2022-11-10T16:33:32.326Z,10.91
2022-11-10T16:39:15.694Z,10.86
2022-11-10T16:44:55.036Z,10.65
2022-11-10T16:50:35.848Z,10.54
2022-11-10T16:56:16.347Z,10.42
2022-11-10T17:01:57.253Z,10.39
2022-11-10T17:07:37.114Z,10.39
2022-11-10T17:13:16.906Z,10.31
2022-11-10T17:18:57.900Z,10.33
2022-11-10T17:24:36.987Z,10.24
2022-11-10T17:30:16.402Z,10.07
2022-11-10T17:35:56.807Z,10.10
2022-11-10T17:41:36.382Z,10.08
2022-11-10T17:47:15.916Z,9.94
2022-11-10T17:52:55.219Z,9.90
2022-11-10T17:58:36.006Z,9.79
2022-11-10T18:04:15.839Z,9.73
2022-11-10T18:09:55.367Z,9.77
2022-11-10T18:15:34.746Z,9.72
2022-11-10T18:21:14.384Z,9.69
2022-11-10T18:26:53.788Z,9.68
2022-11-10T18:32:33.262Z,9.53
2022-11-10T18:38:13.540Z,9.45
2022-11-10T18:43:53.088Z,9.44
2022-11-10T18:49:33.765Z,9.58
2022-11-10T18:55:13.122Z,9.69
2022-11-10T19:00:52.235Z,9.63
2022-11-10T19:06:31.721Z,9.41
2022-11-10T19:12:12.114Z,9.30
2022-11-10T19:17:51.583Z,9.28
2022-11-10T19:23:30.778Z,9.72
2022-11-10T19:29:10.213Z,9.57
2022-11-10T19:34:49.603Z,9.48
2022-11-10T19:40:29.054Z,9.43
2022-11-10T19:46:10.412Z,9.38
2022-11-10T19:51:50.534Z,9.50
2022-11-10T19:57:29.929Z,9.53
2022-11-10T20:03:11.544Z,9.39
2022-11-10T20:08:51.137Z,9.36
2022-11-10T20:14:30.800Z,9.37
2022-11-10T20:20:11.201Z,9.24
2022-11-10T20:26:00.699Z,8.93
2022-11-10T20:31:40.076Z,8.91
2022-11-10T20:37:19.497Z,8.89
2022-11-10T20:42:58.582Z,8.90
2022-11-10T20:48:38.524Z,8.89
2022-11-10T20:54:17.765Z,9.09
2022-11-10T20:59:57.031Z,9.26
2022-11-10T21:05:36.152Z,9.22
2022-11-10T21:11:35.447Z,9.26
2022-11-10T21:17:14.623Z,9.03
2022-11-10T21:22:56.008Z,9.02
2022-11-10T21:28:38.666Z,8.90
2022-11-10T21:34:18.100Z,8.84
2022-11-10T21:39:57.390Z,8.92
2022-11-10T21:45:37.920Z,8.85
2022-11-10T21:51:19.761Z,8.71
2022-11-10T21:56:59.278Z,8.44
2022-11-10T22:02:38.822Z,8.24
2022-11-10T22:08:21.740Z,8.10
2022-11-10T22:14:20.023Z,7.88
2022-11-10T22:19:59.504Z,7.89
2022-11-10T22:25:39.323Z,8.02
2022-11-10T22:31:18.575Z,7.87
2022-11-10T22:36:59.584Z,7.76
2022-11-10T22:43:08.893Z,7.68
2022-11-10T22:48:48.520Z,7.60
2022-11-10T22:54:27.681Z,7.60
2022-11-10T23:00:08.806Z,7.70
2022-11-10T23:05:55.874Z,7.68
2022-11-10T23:11:36.148Z,7.62
2022-11-10T23:17:15.925Z,7.55
2022-11-10T23:22:56.353Z,7.45
2022-11-10T23:28:36.085Z,7.49
2022-11-10T23:34:15.611Z,7.52
2022-11-10T23:39:55.141Z,7.52
2022-11-10T23:46:04.795Z,7.52
2022-11-10T23:51:33.601Z,7.65
2022-11-10T23:57:12.705Z,7.62
